createdAt,value
2022-08-28T00:00:19.133Z,59.09
2022-08-28T00:02:45.390Z,59.12
2022-08-28T00:05:11.670Z,58.88
2022-08-28T00:07:37.889Z,59.14
2022-08-28T00:10:04.088Z,59.23
2022-08-28T00:12:30.312Z,59.24
2022-08-28T00:14:56.551Z,59.29
2022-08-28T00:17:22.911Z,59.36
2022-08-28T00:19:49.328Z,59.41
2022-08-28T00:22:15.578Z,59.53
2022-08-28T00:24:42.118Z,59.56
2022-08-28T00:27:08.534Z,59.56
2022-08-28T00:29:34.814Z,59.59
2022-08-28T00:32:01.072Z,59.83
2022-08-28T00:34:29.652Z,59.67
2022-08-28T00:36:59.457Z,59.56
2022-08-28T00:39:27.952Z,59.56
2022-08-28T00:41:57.833Z,59.62
2022-08-28T00:44:24.267Z,59.63
2022-08-28T00:46:50.553Z,59.74
2022-08-28T00:49:16.766Z,59.79
2022-08-28T00:51:43.007Z,59.67
2022-08-28T00:54:09.275Z,59.67
2022-08-28T00:56:35.462Z,59.70
2022-08-28T00:59:01.605Z,59.66
2022-08-28T01:01:27.785Z,59.66
2022-08-28T01:03:53.954Z,59.61
2022-08-28T01:06:20.095Z,59.64
2022-08-28T01:08:46.266Z,59.70
2022-08-28T01:11:16.879Z,59.66
2022-08-28T01:13:43.007Z,59.71
2022-08-28T01:16:09.221Z,59.56
2022-08-28T01:18:35.437Z,59.58
2022-08-28T01:21:01.633Z,59.48
2022-08-28T01:23:27.775Z,59.56
2022-08-28T01:25:53.924Z,59.56
2022-08-28T01:28:20.061Z,59.60
2022-08-28T01:30:46.256Z,59.61
2022-08-28T01:33:12.512Z,59.66
2022-08-28T01:35:38.655Z,59.52
2022-08-28T01:38:04.794Z,59.47
2022-08-28T01:40:31.070Z,59.61
2022-08-28T01:42:57.228Z,59.56
2022-08-28T01:45:23.385Z,59.61
2022-08-28T01:47:49.594Z,59.66
2022-08-28T01:50:17.596Z,59.61
2022-08-28T01:52:43.731Z,59.70
2022-08-28T01:55:09.901Z,59.76
2022-08-28T01:57:36.044Z,59.81
2022-08-28T02:00:02.170Z,59.93
2022-08-28T02:02:28.337Z,59.84
2022-08-28T02:04:54.517Z,59.91
2022-08-28T02:07:20.659Z,59.91
2022-08-28T02:09:46.827Z,59.91
2022-08-28T02:12:12.972Z,59.95
2022-08-28T02:14:39.114Z,59.97
2022-08-28T02:17:05.265Z,60.07
2022-08-28T02:19:31.414Z,60.07
2022-08-28T02:21:57.547Z,60.15
2022-08-28T02:24:23.704Z,60.01
2022-08-28T02:26:49.846Z,60.19
2022-08-28T02:29:15.976Z,60.23
2022-08-28T02:31:42.866Z,60.22
2022-08-28T02:34:08.998Z,60.34
2022-08-28T02:36:35.146Z,60.37
2022-08-28T02:39:01.317Z,60.39
2022-08-28T02:41:27.454Z,60.46
2022-08-28T02:43:53.592Z,60.50
2022-08-28T02:46:19.764Z,60.52
2022-08-28T02:48:45.977Z,60.57
2022-08-28T02:51:12.108Z,60.77
2022-08-28T02:53:38.266Z,60.79
2022-08-28T02:56:04.392Z,60.95
2022-08-28T02:58:30.530Z,61.04
2022-08-28T03:00:56.765Z,61.16
2022-08-28T03:03:22.992Z,61.10
2022-08-28T03:05:49.128Z,60.98
2022-08-28T03:08:15.275Z,61.32
2022-08-28T03:10:41.440Z,61.49
2022-08-28T03:13:07.579Z,61.67
2022-08-28T03:15:33.754Z,61.61
2022-08-28T03:17:59.913Z,61.68
2022-08-28T03:20:26.396Z,61.64
2022-08-28T03:22:52.554Z,61.92
2022-08-28T03:25:18.681Z,61.88
2022-08-28T03:27:44.821Z,61.76
2022-08-28T03:30:12.890Z,61.84
2022-08-28T03:32:39.014Z,61.99
2022-08-28T03:35:05.180Z,62.03
2022-08-28T03:37:31.609Z,62.09
2022-08-28T03:39:57.786Z,62.13
2022-08-28T03:42:23.946Z,62.10
2022-08-28T03:44:50.096Z,62.02
2022-08-28T03:47:16.217Z,62.13
2022-08-28T03:49:42.350Z,62.13
2022-08-28T03:52:08.510Z,62.30
2022-08-28T03:54:34.653Z,62.46
2022-08-28T03:57:00.792Z,62.39
2022-08-28T03:59:31.744Z,62.46
2022-08-28T04:01:59.862Z,62.38
2022-08-28T04:04:26.005Z,62.34
2022-08-28T04:06:52.157Z,62.33
2022-08-28T04:09:18.342Z,62.38
2022-08-28T04:11:44.491Z,62.49
2022-08-28T04:14:10.645Z,62.47
2022-08-28T04:16:36.850Z,62.70
2022-08-28T04:19:03.013Z,62.60
2022-08-28T04:21:29.237Z,62.80
2022-08-28T04:23:55.369Z,63.06
2022-08-28T04:26:21.491Z,63.33
2022-08-28T04:28:47.636Z,63.64
2022-08-28T04:31:13.912Z,63.80
2022-08-28T04:33:40.082Z,63.90
2022-08-28T04:36:06.576Z,64.31
2022-08-28T04:38:32.725Z,64.28
2022-08-28T04:40:58.946Z,64.26
2022-08-28T04:43:25.504Z,64.47
2022-08-28T04:45:51.696Z,64.51
2022-08-28T04:48:17.993Z,64.72
2022-08-28T04:50:44.347Z,64.79
2022-08-28T04:53:10.494Z,64.58
2022-08-28T04:55:53.702Z,64.65
2022-08-28T04:58:23.657Z,64.78
2022-08-28T05:00:50.371Z,65.25
2022-08-28T05:03:16.549Z,64.96
2022-08-28T05:05:42.711Z,64.76
2022-08-28T05:08:08.853Z,64.96
2022-08-28T05:10:35.002Z,64.99
2022-08-28T05:13:01.158Z,65.07
2022-08-28T05:15:27.315Z,65.09
2022-08-28T05:17:53.462Z,65.19
2022-08-28T05:20:19.616Z,65.04
2022-08-28T05:22:45.761Z,65.11
2022-08-28T05:25:11.891Z,64.99
2022-08-28T05:27:38.054Z,64.95
2022-08-28T05:30:04.192Z,65.03
2022-08-28T05:32:30.321Z,64.89
2022-08-28T05:34:56.467Z,64.87
2022-08-28T05:37:22.624Z,64.82
2022-08-28T05:39:48.745Z,64.79
2022-08-28T05:42:14.895Z,64.81
2022-08-28T05:44:41.033Z,65.24
2022-08-28T05:47:07.162Z,65.10
2022-08-28T05:49:33.313Z,65.28
2022-08-28T05:51:59.447Z,65.46
2022-08-28T05:54:25.578Z,65.22
2022-08-28T05:56:51.767Z,65.23
2022-08-28T06:02:04.542Z,65.28
2022-08-28T06:04:30.849Z,65.11
2022-08-28T06:06:57.005Z,65.18
2022-08-28T06:09:28.187Z,65.17
2022-08-28T06:11:55.432Z,65.34
2022-08-28T06:14:23.322Z,65.40
2022-08-28T06:16:51.108Z,65.38
2022-08-28T06:19:17.259Z,65.20
2022-08-28T06:21:43.415Z,65.15
2022-08-28T06:24:09.573Z,65.08
2022-08-28T06:26:35.701Z,65.06
2022-08-28T06:29:01.852Z,64.96
2022-08-28T06:31:32.463Z,64.96
2022-08-28T06:33:59.448Z,64.92
2022-08-28T06:36:25.580Z,64.84
2022-08-28T06:38:51.724Z,64.71
2022-08-28T06:41:17.852Z,64.65
2022-08-28T06:43:44.002Z,64.71
2022-08-28T06:46:10.230Z,64.71
2022-08-28T06:48:36.432Z,64.79
2022-08-28T06:51:02.596Z,64.65
2022-08-28T06:53:28.740Z,64.66
2022-08-28T06:55:54.869Z,64.68
2022-08-28T06:58:21.013Z,64.77
2022-08-28T07:00:47.166Z,64.70
2022-08-28T07:03:13.314Z,64.52
2022-08-28T07:05:39.468Z,64.56
2022-08-28T07:08:05.705Z,64.49
2022-08-28T07:10:31.906Z,64.15
2022-08-28T07:12:58.063Z,64.09
2022-08-28T07:15:24.213Z,63.95
2022-08-28T07:17:50.367Z,63.71
2022-08-28T07:20:16.574Z,63.62
2022-08-28T07:22:42.743Z,63.46
2022-08-28T07:25:08.929Z,63.59
2022-08-28T07:27:35.068Z,63.51
2022-08-28T07:30:01.224Z,63.34
2022-08-28T07:32:27.362Z,63.19
2022-08-28T07:34:53.490Z,63.16
2022-08-28T07:37:19.651Z,63.25
2022-08-28T07:39:45.789Z,63.06
2022-08-28T07:42:11.924Z,62.94
2022-08-28T07:44:38.093Z,62.71
2022-08-28T07:47:04.299Z,62.42
2022-08-28T07:49:30.562Z,62.09
2022-08-28T07:51:56.720Z,61.85
2022-08-28T07:54:22.839Z,61.67
2022-08-28T07:56:48.975Z,61.62
2022-08-28T07:59:16.750Z,61.43
2022-08-28T08:01:43.484Z,61.53
2022-08-28T08:04:09.659Z,61.35
2022-08-28T08:06:35.821Z,61.41
2022-08-28T08:09:02.013Z,61.21
2022-08-28T08:11:28.257Z,61.01
2022-08-28T08:13:58.611Z,61.34
2022-08-28T08:16:25.249Z,61.46
2022-08-28T08:18:51.448Z,61.47
2022-08-28T08:21:17.625Z,61.39
2022-08-28T08:23:43.771Z,61.19
2022-08-28T08:26:09.918Z,61.01
2022-08-28T08:28:36.068Z,60.70
2022-08-28T08:31:02.243Z,60.52
2022-08-28T08:33:28.415Z,60.13
2022-08-28T08:35:54.586Z,59.81
2022-08-28T08:38:20.747Z,59.51
2022-08-28T08:40:46.933Z,59.20
2022-08-28T08:43:13.253Z,58.95
2022-08-28T08:45:39.423Z,58.72
2022-08-28T08:48:05.622Z,58.65
2022-08-28T08:50:31.815Z,58.32
2022-08-28T08:52:58.005Z,58.09
2022-08-28T08:55:24.136Z,58.01
2022-08-28T08:57:50.288Z,57.92
2022-08-28T09:00:16.446Z,57.86
2022-08-28T09:02:42.620Z,57.62
2022-08-28T09:05:08.912Z,57.63
2022-08-28T09:07:35.042Z,57.31
2022-08-28T09:10:01.195Z,56.93
2022-08-28T09:12:27.371Z,56.60
2022-08-28T09:14:53.532Z,56.34
2022-08-28T09:17:19.677Z,56.01
2022-08-28T09:19:45.836Z,55.74
2022-08-28T09:22:11.979Z,55.54
2022-08-28T09:24:38.100Z,55.30
2022-08-28T09:27:04.301Z,54.91
2022-08-28T09:29:30.483Z,54.20
2022-08-28T09:31:56.625Z,54.03
2022-08-28T09:34:22.805Z,53.68
2022-08-28T09:36:48.946Z,53.57
2022-08-28T09:39:15.099Z,53.37
2022-08-28T09:41:41.249Z,53.06
2022-08-28T09:44:07.389Z,52.81
2022-08-28T09:46:33.615Z,52.96
2022-08-28T09:48:59.887Z,53.25
2022-08-28T09:51:26.314Z,53.43
2022-08-28T09:53:54.047Z,53.55
2022-08-28T09:56:20.212Z,53.65
2022-08-28T09:58:46.376Z,53.59
2022-08-28T10:01:12.573Z,53.29
2022-08-28T10:03:38.754Z,53.23
2022-08-28T10:06:04.905Z,52.96
2022-08-28T10:08:31.070Z,52.75
2022-08-28T10:10:57.251Z,52.20
2022-08-28T10:13:23.469Z,51.79
2022-08-28T10:15:49.658Z,51.43
2022-08-28T10:18:15.968Z,51.09
2022-08-28T10:20:42.106Z,50.78
2022-08-28T10:23:08.267Z,50.79
2022-08-28T10:25:34.415Z,50.83
2022-08-28T10:28:02.226Z,50.74
2022-08-28T10:30:28.383Z,50.67
2022-08-28T10:32:54.603Z,50.63
2022-08-28T10:35:20.754Z,50.63
2022-08-28T10:37:46.914Z,50.53
2022-08-28T10:40:13.134Z,50.55
2022-08-28T10:42:39.377Z,50.49
2022-08-28T10:45:05.575Z,50.55
2022-08-28T10:47:31.746Z,50.44
2022-08-28T10:49:57.898Z,50.35
2022-08-28T10:52:24.042Z,50.45
2022-08-28T10:54:50.214Z,50.09
2022-08-28T10:57:16.364Z,49.81
2022-08-28T10:59:42.541Z,49.59
2022-08-28T11:02:09.295Z,49.27
2022-08-28T11:04:35.484Z,48.94
2022-08-28T11:07:02.234Z,48.74
2022-08-28T11:09:28.506Z,48.73
2022-08-28T11:11:58.421Z,48.62
2022-08-28T11:14:27.314Z,48.28
2022-08-28T11:16:53.487Z,48.33
2022-08-28T11:19:19.645Z,48.30
2022-08-28T11:21:45.824Z,48.26
2022-08-28T11:24:12.285Z,48.24
2022-08-28T11:26:38.724Z,48.33
2022-08-28T11:29:05.174Z,48.15
2022-08-28T11:31:31.404Z,48.12
2022-08-28T11:33:57.562Z,48.13
2022-08-28T11:36:23.709Z,47.88
2022-08-28T11:38:49.862Z,47.87
2022-08-28T11:41:15.984Z,47.75
2022-08-28T11:43:42.115Z,47.49
2022-08-28T11:46:08.348Z,47.00
2022-08-28T11:48:34.521Z,46.60
2022-08-28T11:51:00.662Z,46.62
2022-08-28T11:53:26.820Z,46.20
2022-08-28T11:55:52.959Z,46.32
2022-08-28T11:58:19.107Z,46.27
2022-08-28T12:00:45.264Z,46.24
2022-08-28T12:03:11.503Z,46.24
2022-08-28T12:05:37.818Z,46.01
2022-08-28T12:08:05.062Z,46.13
2022-08-28T12:10:31.326Z,46.05
2022-08-28T12:12:57.472Z,46.22
2022-08-28T12:15:23.661Z,46.15
2022-08-28T12:17:49.811Z,45.59
2022-08-28T12:20:15.963Z,45.07
2022-08-28T12:22:42.128Z,45.06
2022-08-28T12:25:08.309Z,44.33
2022-08-28T12:27:34.488Z,44.41
2022-08-28T12:30:00.654Z,44.41
2022-08-28T12:32:26.787Z,44.42
2022-08-28T12:34:52.965Z,44.46
2022-08-28T12:37:19.145Z,44.62
2022-08-28T12:39:45.281Z,44.88
2022-08-28T12:42:11.408Z,44.87
2022-08-28T12:44:37.649Z,44.51
2022-08-28T12:47:03.791Z,44.30
2022-08-28T12:49:29.916Z,44.27
2022-08-28T12:51:56.093Z,43.96
2022-08-28T12:54:22.231Z,43.84
2022-08-28T12:56:48.353Z,43.96
2022-08-28T12:59:14.516Z,43.36
2022-08-28T13:01:40.740Z,43.41
2022-08-28T13:04:06.962Z,43.40
2022-08-28T13:06:33.208Z,43.33
2022-08-28T13:08:59.354Z,43.47
2022-08-28T13:11:25.509Z,43.73
2022-08-28T13:13:51.662Z,43.76
2022-08-28T13:16:17.857Z,43.63
2022-08-28T13:18:44.032Z,43.60
2022-08-28T13:21:10.193Z,43.40
2022-08-28T13:23:36.327Z,43.10
2022-08-28T13:26:02.474Z,42.87
2022-08-28T13:28:28.932Z,42.72
2022-08-28T13:30:55.120Z,42.62
2022-08-28T13:33:21.292Z,42.40
2022-08-28T13:35:47.471Z,42.37
2022-08-28T13:38:13.631Z,42.43
2022-08-28T13:40:57.497Z,42.51
2022-08-28T13:43:24.429Z,42.45
2022-08-28T13:45:50.622Z,42.22
2022-08-28T13:48:16.843Z,42.17
2022-08-28T13:50:43.007Z,41.65
2022-08-28T13:53:13.100Z,41.32
2022-08-28T13:55:39.381Z,41.08
2022-08-28T13:58:05.544Z,41.26
2022-08-28T14:00:31.682Z,41.29
2022-08-28T14:02:57.809Z,41.09
2022-08-28T14:05:23.974Z,41.08
2022-08-28T14:07:50.107Z,41.12
2022-08-28T14:10:16.268Z,40.87
2022-08-28T14:12:43.024Z,40.69
2022-08-28T14:15:09.160Z,40.58
2022-08-28T14:17:35.284Z,40.65
2022-08-28T14:20:01.478Z,40.41
2022-08-28T14:22:27.600Z,40.21
2022-08-28T14:24:53.743Z,40.15
2022-08-28T14:27:19.911Z,39.60
2022-08-28T14:29:46.061Z,39.50
2022-08-28T14:32:12.275Z,39.36
2022-08-28T14:34:39.038Z,39.12
2022-08-28T14:37:05.175Z,38.74
2022-08-28T14:39:31.306Z,38.61
2022-08-28T14:41:57.451Z,38.35
2022-08-28T14:44:23.577Z,38.47
2022-08-28T14:46:49.730Z,38.37
2022-08-28T14:49:15.899Z,37.64
2022-08-28T14:51:42.119Z,37.13
2022-08-28T14:54:08.253Z,36.80
2022-08-28T14:56:34.408Z,36.37
2022-08-28T14:59:00.540Z,35.58
2022-08-28T15:01:26.763Z,35.88
2022-08-28T15:04:05.929Z,34.32
2022-08-28T15:06:32.099Z,32.70
2022-08-28T15:08:58.245Z,30.46
2022-08-28T15:11:24.397Z,29.07
2022-08-28T15:13:50.552Z,27.87
2022-08-28T15:16:16.741Z,27.32
2022-08-28T15:18:42.965Z,26.88
2022-08-28T15:21:11.872Z,26.01
2022-08-28T15:23:38.018Z,25.84
2022-08-28T15:26:12.227Z,25.40
2022-08-28T15:28:41.323Z,25.33
2022-08-28T15:31:07.488Z,25.28
2022-08-28T15:33:33.702Z,25.41
2022-08-28T15:35:59.847Z,25.47
2022-08-28T15:38:25.988Z,25.33
2022-08-28T15:40:52.222Z,24.66
2022-08-28T15:43:18.347Z,24.29
2022-08-28T15:45:44.538Z,24.52
2022-08-28T15:48:10.765Z,24.46
2022-08-28T15:50:36.896Z,24.55
2022-08-28T15:53:03.033Z,24.32
2022-08-28T15:55:29.192Z,24.39
2022-08-28T15:57:55.325Z,24.97
2022-08-28T16:00:21.448Z,24.91
2022-08-28T16:02:47.589Z,24.58
2022-08-28T16:05:13.746Z,24.30
2022-08-28T16:07:39.871Z,24.47
2022-08-28T16:10:06.050Z,24.89
2022-08-28T16:12:32.197Z,25.19
2022-08-28T16:14:58.342Z,26.05
2022-08-28T16:17:24.562Z,27.23
2022-08-28T16:19:50.881Z,27.17
2022-08-28T16:22:17.009Z,27.64
2022-08-28T16:24:43.156Z,27.40
2022-08-28T16:27:14.697Z,27.47
2022-08-28T16:29:41.712Z,26.57
2022-08-28T16:32:07.953Z,26.28
2022-08-28T16:34:34.156Z,25.63
2022-08-28T16:37:00.321Z,25.33
2022-08-28T16:39:26.764Z,24.79
2022-08-28T16:41:52.914Z,24.57
2022-08-28T16:44:19.063Z,24.81
2022-08-28T16:46:45.293Z,24.91
2022-08-28T16:49:11.472Z,24.71
2022-08-28T16:51:37.627Z,25.05
2022-08-28T16:54:03.787Z,25.16
2022-08-28T16:56:29.947Z,25.24
2022-08-28T16:58:56.094Z,25.20
2022-08-28T17:01:22.331Z,25.48
2022-08-28T17:03:50.590Z,26.13
2022-08-28T17:06:16.728Z,25.90
2022-08-28T17:08:42.885Z,26.40
2022-08-28T17:11:09.026Z,26.62
2022-08-28T17:13:35.159Z,27.15
2022-08-28T17:16:01.388Z,27.26
2022-08-28T17:18:27.552Z,27.64
2022-08-28T17:20:53.681Z,27.55
2022-08-28T17:23:20.664Z,27.75
2022-08-28T17:25:46.800Z,28.51
2022-08-28T17:28:13.031Z,28.88
2022-08-28T17:30:39.307Z,28.80
2022-08-28T17:33:05.450Z,28.82
2022-08-28T17:35:31.583Z,28.63
2022-08-28T17:38:07.986Z,28.71
2022-08-28T17:40:34.151Z,28.96
2022-08-28T17:43:00.352Z,29.24
2022-08-28T17:45:26.909Z,29.09
2022-08-28T17:47:53.035Z,29.38
2022-08-28T17:50:19.164Z,29.54
2022-08-28T17:52:45.315Z,30.02
2022-08-28T17:55:11.468Z,30.29
2022-08-28T17:57:37.609Z,30.60
2022-08-28T18:00:05.153Z,31.00
2022-08-28T18:02:31.452Z,31.45
2022-08-28T18:04:57.624Z,31.73
2022-08-28T18:07:23.815Z,32.19
2022-08-28T18:09:49.968Z,32.53
2022-08-28T18:12:16.110Z,32.96
2022-08-28T18:14:42.310Z,33.02
2022-08-28T18:17:09.142Z,33.28
2022-08-28T18:19:35.397Z,33.79
2022-08-28T18:22:01.552Z,34.24
2022-08-28T18:24:27.690Z,34.73
2022-08-28T18:26:53.824Z,35.28
2022-08-28T18:29:20.022Z,35.54
2022-08-28T18:31:46.264Z,35.72
2022-08-28T18:34:12.510Z,35.87
2022-08-28T18:36:38.661Z,36.21
2022-08-28T18:39:04.799Z,36.54
2022-08-28T18:41:37.670Z,36.76
2022-08-28T18:44:10.490Z,36.86
2022-08-28T18:46:36.674Z,37.01
2022-08-28T18:49:02.845Z,37.12
2022-08-28T18:51:29.033Z,37.50
2022-08-28T18:53:55.222Z,37.75
2022-08-28T18:56:21.401Z,38.01
2022-08-28T18:58:47.557Z,38.17
2022-08-28T19:01:13.740Z,38.59
2022-08-28T19:03:39.911Z,38.75
2022-08-28T19:06:06.070Z,38.94
2022-08-28T19:08:32.202Z,38.99
2022-08-28T19:10:58.337Z,39.14
2022-08-28T19:13:24.545Z,39.51
2022-08-28T19:15:50.789Z,39.74
2022-08-28T19:18:17.039Z,39.81
2022-08-28T19:20:43.198Z,40.09
2022-08-28T19:23:09.326Z,40.41
2022-08-28T19:25:35.472Z,40.68
2022-08-28T19:28:01.800Z,40.64
2022-08-28T19:30:27.979Z,40.94
2022-08-28T19:32:54.150Z,41.22
2022-08-28T19:35:20.296Z,41.35
2022-08-28T19:37:50.564Z,41.57
2022-08-28T19:40:16.794Z,41.86
2022-08-28T19:42:42.983Z,42.11
2022-08-28T19:45:09.116Z,42.32
2022-08-28T19:47:35.723Z,42.41
2022-08-28T19:50:02.349Z,42.47
2022-08-28T19:52:28.486Z,42.76
2022-08-28T19:54:55.489Z,43.07
2022-08-28T19:57:21.766Z,43.17
2022-08-28T19:59:48.621Z,43.22
2022-08-28T20:02:14.800Z,43.32
2022-08-28T20:04:40.982Z,43.37
2022-08-28T20:07:07.130Z,43.50
2022-08-28T20:09:33.256Z,43.53
2022-08-28T20:11:59.400Z,43.61
2022-08-28T20:14:25.549Z,43.76
2022-08-28T20:16:51.687Z,43.76
2022-08-28T20:19:17.844Z,44.04
2022-08-28T20:21:43.991Z,44.20
2022-08-28T20:24:10.117Z,44.48
2022-08-28T20:26:36.717Z,45.01
2022-08-28T20:29:02.846Z,45.09
2022-08-28T20:31:29.012Z,45.42
2022-08-28T20:33:55.219Z,45.83
2022-08-28T20:36:21.585Z,45.70
2022-08-28T20:38:47.750Z,45.95
2022-08-28T20:41:13.914Z,46.36
2022-08-28T20:43:40.112Z,46.39
2022-08-28T20:46:07.569Z,46.70
2022-08-28T20:48:33.756Z,46.70
2022-08-28T20:50:59.891Z,46.72
2022-08-28T20:53:36.900Z,46.73
2022-08-28T20:56:04.596Z,46.83
2022-08-28T20:58:30.724Z,46.99
2022-08-28T21:00:59.399Z,47.39
2022-08-28T21:03:27.192Z,47.33
2022-08-28T21:05:54.608Z,47.62
2022-08-28T21:08:20.761Z,47.55
2022-08-28T21:10:46.905Z,47.88
2022-08-28T21:13:13.062Z,47.87
2022-08-28T21:15:39.206Z,47.98
2022-08-28T21:18:05.358Z,47.92
2022-08-28T21:20:31.498Z,48.00
2022-08-28T21:22:57.652Z,48.26
2022-08-28T21:25:23.813Z,48.38
2022-08-28T21:27:49.940Z,48.44
2022-08-28T21:30:16.086Z,48.43
2022-08-28T21:32:42.242Z,48.73
2022-08-28T21:35:08.382Z,48.73
2022-08-28T21:37:34.525Z,49.00
2022-08-28T21:40:00.819Z,49.01
2022-08-28T21:42:27.058Z,49.10
2022-08-28T21:44:53.225Z,49.13
2022-08-28T21:47:19.389Z,49.12
2022-08-28T21:49:45.532Z,49.24
2022-08-28T21:52:11.672Z,49.44
2022-08-28T21:54:37.842Z,49.77
2022-08-28T21:57:03.995Z,49.62
2022-08-28T21:59:37.783Z,49.87
2022-08-28T22:02:04.419Z,50.02
2022-08-28T22:04:30.649Z,49.95
2022-08-28T22:06:56.795Z,50.10
2022-08-28T22:09:22.959Z,50.38
2022-08-28T22:11:49.093Z,50.49
2022-08-28T22:14:15.218Z,50.43
2022-08-28T22:16:41.433Z,50.53
2022-08-28T22:19:07.604Z,50.56
2022-08-28T22:21:33.745Z,50.74
2022-08-28T22:23:59.926Z,50.82
2022-08-28T22:26:26.068Z,51.05
2022-08-28T22:28:52.192Z,51.11
2022-08-28T22:31:19.342Z,51.08
2022-08-28T22:33:45.560Z,51.44
2022-08-28T22:36:11.699Z,51.36
2022-08-28T22:38:37.850Z,51.64
2022-08-28T22:41:03.984Z,51.72
2022-08-28T22:43:30.127Z,51.84
2022-08-28T22:45:56.390Z,51.91
2022-08-28T22:48:22.542Z,51.61
2022-08-28T22:50:48.698Z,51.80
2022-08-28T22:53:16.114Z,52.08
2022-08-28T22:55:43.533Z,52.27
2022-08-28T22:58:09.778Z,52.58
2022-08-28T23:00:36.003Z,52.71
2022-08-28T23:03:02.223Z,53.00
2022-08-28T23:05:28.404Z,53.22
2022-08-28T23:07:54.554Z,53.14
2022-08-28T23:10:32.112Z,53.07
2022-08-28T23:13:06.855Z,53.37
2022-08-28T23:15:33.003Z,53.20
2022-08-28T23:17:59.129Z,53.48
2022-08-28T23:20:27.596Z,53.41
2022-08-28T23:22:58.117Z,53.72
2022-08-28T23:25:24.441Z,53.60
2022-08-28T23:27:50.590Z,53.85
2022-08-28T23:30:16.731Z,53.83
2022-08-28T23:32:42.882Z,53.99
2022-08-28T23:35:09.378Z,54.19
2022-08-28T23:37:35.509Z,54.22
2022-08-28T23:40:01.696Z,54.30
2022-08-28T23:42:27.887Z,54.45
2022-08-28T23:44:55.306Z,54.38
2022-08-28T23:47:21.456Z,54.54
2022-08-28T23:49:47.621Z,54.55
2022-08-28T23:52:13.787Z,54.79
2022-08-28T23:54:39.963Z,54.95
2022-08-28T23:57:07.313Z,55.15
2022-08-28T23:59:33.469Z,55.04
